Kortrijk, Belgium
Current Conditions -  °F | °C
As of 11:30 PM on Thursday 20 Nov 2014 (Local Time) from LFQQ Reporting Station
Haze Haze  
Wind Chill:   Ceiling: 400
Heat Index:   Visibility: 1.7mi
Dew Point:   Wind: 9mph
Humidity: 100%   Direction: 80°E
Pressure: 30.24"   Gusts: NA
Location:  50.83°N, 3.26°E
Report Text: LFQQ 202230Z 08008KT 2800 BR BKN004 06/06 Q1024 TEMPO 0200FG VV///
Loading
Personal Weather Stations






























Interactive Weather Map New forecast layout! Learn more

10-Day Weather Forecast

Advertisements
Track Severe Weather on mobile